Time;durP1;ratioP1;P1;durP2;ratioP2;P2;SDS_P1;SDS_P2;PMS_P1;PMS_P2;Temp;Humidity;BMP_temperature;BMP_pressure;BME280_temperature;BME280_humidity;BME280_pressure;Samples;Min_cycle;Max_cycle;Signal;HPM_P1;HPM_P2
2023/01/29 00:03:56;;;;;;;55.45;28.58;;;-3.40;99.90;;;;;;7325955;32;20840;-59
2023/01/29 00:07:58;;;;;;;56.97;29.02;;;-3.40;99.90;;;;;;7342112;32;20205;-61
2023/01/29 00:12:00;;;;;;;57.92;29.63;;;-3.40;99.90;;;;;;7340776;32;20591;-63
2023/01/29 00:16:03;;;;;;;58.58;29.70;;;-3.50;99.90;;;;;;7323664;32;20194;-60
2023/01/29 00:20:05;;;;;;;55.58;29.20;;;-3.40;99.90;;;;;;7334992;32;20529;-60
2023/01/29 00:24:07;;;;;;;54.00;28.58;;;-3.50;99.90;;;;;;7326765;32;20630;-61
2023/01/29 00:28:09;;;;;;;53.72;28.48;;;-3.50;99.90;;;;;;7343196;32;20111;-60
2023/01/29 00:32:11;;;;;;;54.33;28.45;;;-3.40;99.90;;;;;;7328441;32;20119;-59
2023/01/29 00:36:15;;;;;;;56.92;30.27;;;-3.50;99.90;;;;;;7333080;32;20279;-60
2023/01/29 00:40:16;;;;;;;52.17;27.83;;;-3.50;99.90;;;;;;7331672;32;20263;-60
2023/01/29 00:48:39;;;;;;;52.72;27.23;;;-3.50;99.90;;;;;;7331716;32;20115;-59
2023/01/29 00:52:41;;;;;;;57.90;28.52;;;-3.60;99.90;;;;;;7335852;32;20107;-59
2023/01/29 00:56:43;;;;;;;52.05;27.50;;;-3.70;99.90;;;;;;7330194;32;20100;-62
2023/01/29 01:00:44;;;;;;;55.22;28.27;;;-3.80;99.90;;;;;;7321471;32;20119;-61
2023/01/29 01:04:46;;;;;;;52.83;28.05;;;-3.70;99.90;;;;;;7333726;32;20133;-60
2023/01/29 01:13:08;;;;;;;54.50;27.37;;;-3.70;99.90;;;;;;7341725;32;20187;-61
2023/01/29 01:17:10;;;;;;;53.95;26.98;;;-3.70;99.90;;;;;;7333656;32;20560;-61
2023/01/29 01:21:12;;;;;;;55.00;27.42;;;-3.70;99.90;;;;;;7326086;32;20187;-60
2023/01/29 01:25:14;;;;;;;50.12;26.02;;;-3.60;99.90;;;;;;7341167;32;20293;-59
2023/01/29 01:29:16;;;;;;;51.72;26.87;;;-3.60;99.90;;;;;;7331156;32;20152;-59
2023/01/29 01:33:17;;;;;;;53.20;27.08;;;-3.50;99.90;;;;;;7334940;32;20212;-62
2023/01/29 01:37:19;;;;;;;54.00;28.50;;;-3.50;99.90;;;;;;7343642;32;20126;-61
2023/01/29 01:41:22;;;;;;;53.33;28.40;;;-3.40;99.90;;;;;;7331966;32;20153;-60
2023/01/29 01:45:33;;;;;;;61.17;31.42;;;-3.40;99.90;;;;;;7336732;32;20334;-64
2023/01/29 01:49:34;;;;;;;54.45;30.30;;;-3.40;99.90;;;;;;7335932;32;20216;-60
2023/01/29 01:53:41;;;;;;;62.85;29.67;;;-3.40;99.90;;;;;;7335190;32;20217;-60
2023/01/29 01:57:47;;;;;;;51.65;27.60;;;-3.40;99.90;;;;;;7331635;32;20122;-60
2023/01/29 02:01:53;;;;;;;54.53;28.30;;;-3.40;99.90;;;;;;7333447;32;20121;-61
2023/01/29 02:10:19;;;;;;;58.25;31.67;;;-3.40;99.90;;;;;;7333839;32;20182;-63
2023/01/29 02:14:21;;;;;;;52.33;28.67;;;-3.40;99.90;;;;;;7337854;32;20202;-60
2023/01/29 02:18:22;;;;;;;49.55;27.05;;;-3.50;99.90;;;;;;7344723;32;20150;-61
2023/01/29 02:23:01;;;;;;;50.12;26.87;;;-3.50;99.90;;;;;;7339740;32;20592;-60
2023/01/29 02:27:27;;;;;;;55.40;28.17;;;-3.60;99.90;;;;;;7345332;32;20339;-60
2023/01/29 02:31:40;;;;;;;50.78;26.77;;;-3.60;99.90;;;;;;7310269;32;20183;-61
2023/01/29 02:36:13;;;;;;;45.35;24.65;;;-3.50;99.90;;;;;;7331196;32;20138;-60
2023/01/29 02:40:42;;;;;;;54.95;27.27;;;-3.60;99.90;;;;;;7343677;32;20103;-60
2023/01/29 02:44:52;;;;;;;53.40;28.15;;;-3.60;99.90;;;;;;7340505;32;20126;-60
2023/01/29 02:49:03;;;;;;;49.20;26.58;;;-3.60;99.90;;;;;;7324985;32;20224;-60
2023/01/29 02:53:12;;;;;;;52.28;27.17;;;-3.60;99.90;;;;;;7344901;32;20512;-61
2023/01/29 02:57:23;;;;;;;51.95;27.13;;;-3.60;99.90;;;;;;7345218;32;20096;-60
2023/01/29 03:01:48;;;;;;;50.60;27.10;;;-3.60;99.90;;;;;;7330655;32;20616;-60
2023/01/29 03:06:19;;;;;;;56.40;28.52;;;-3.60;99.90;;;;;;7340623;32;20172;-60
2023/01/29 03:10:39;;;;;;;55.05;27.90;;;-3.70;99.90;;;;;;7337420;32;20363;-61
2023/01/29 03:19:07;;;;;;;66.18;30.83;;;-3.60;99.90;;;;;;7340578;32;20138;-60
2023/01/29 03:23:22;;;;;;;57.55;30.35;;;-3.60;99.90;;;;;;7322281;32;20168;-62
2023/01/29 03:32:06;;;;;;;57.93;29.73;;;-3.60;99.90;;;;;;7339144;32;20402;-60
2023/01/29 03:36:15;;;;;;;55.83;28.55;;;-3.70;99.90;;;;;;7339076;32;20190;-60
2023/01/29 03:40:17;;;;;;;51.83;28.12;;;-3.70;99.90;;;;;;7343036;32;20617;-60
2023/01/29 03:44:39;;;;;;;54.42;28.00;;;-3.70;99.90;;;;;;7326803;32;20195;-61
2023/01/29 03:48:53;;;;;;;59.38;30.00;;;-3.70;99.90;;;;;;7342164;32;20151;-61
2023/01/29 03:53:13;;;;;;;53.75;28.70;;;-3.70;99.90;;;;;;7340729;32;20209;-60
2023/01/29 03:57:30;;;;;;;55.97;29.55;;;-3.70;99.90;;;;;;7333104;32;20290;-63
2023/01/29 04:01:46;;;;;;;59.75;30.23;;;-3.70;99.90;;;;;;7326957;32;20189;-60
2023/01/29 04:06:08;;;;;;;60.53;31.90;;;-3.60;99.90;;;;;;7323546;32;20107;-64
2023/01/29 04:10:17;;;;;;;55.60;30.02;;;-3.50;99.90;;;;;;7332032;32;20431;-61
2023/01/29 04:14:19;;;;;;;52.80;28.10;;;-3.50;99.90;;;;;;7337360;32;20161;-60
2023/01/29 04:18:22;;;;;;;62.13;29.98;;;-3.50;99.90;;;;;;7333477;32;20277;-60
2023/01/29 04:22:30;;;;;;;58.47;30.45;;;-3.50;99.90;;;;;;7336357;32;20230;-60
2023/01/29 04:26:47;;;;;;;58.53;31.10;;;-3.50;99.90;;;;;;7338430;32;20214;-61
2023/01/29 04:30:58;;;;;;;60.85;30.45;;;-3.40;99.90;;;;;;7341301;32;20182;-60
2023/01/29 04:35:30;;;;;;;64.57;33.00;;;-3.40;99.90;;;;;;7333556;32;20183;-60
2023/01/29 04:39:43;;;;;;;65.10;31.45;;;-3.30;99.90;;;;;;7340465;32;20533;-60
2023/01/29 04:44:02;;;;;;;59.70;30.92;;;-3.30;99.90;;;;;;7330033;32;20162;-60
2023/01/29 04:48:06;;;;;;;61.00;30.83;;;-3.20;99.90;;;;;;7337636;32;20129;-60
2023/01/29 04:52:40;;;;;;;62.95;31.40;;;-3.20;99.90;;;;;;7336656;32;20518;-60
2023/01/29 04:56:53;;;;;;;62.30;31.37;;;-3.20;99.90;;;;;;7336854;32;20107;-60
2023/01/29 05:00:57;;;;;;;59.38;29.90;;;-3.30;99.90;;;;;;7334161;32;20551;-62
2023/01/29 05:04:59;;;;;;;58.47;29.48;;;-3.30;99.90;;;;;;7331137;32;20200;-60
2023/01/29 05:09:02;;;;;;;56.97;29.75;;;-3.30;99.90;;;;;;7337212;32;20826;-60
2023/01/29 05:13:07;;;;;;;56.50;29.50;;;-3.20;99.90;;;;;;7341829;32;20130;-60
2023/01/29 05:17:14;;;;;;;57.15;30.10;;;-3.20;99.90;;;;;;7338610;32;20123;-61
2023/01/29 05:21:17;;;;;;;61.28;31.83;;;-3.10;99.90;;;;;;7345898;32;20533;-60
2023/01/29 05:25:28;;;;;;;59.15;30.25;;;-3.00;99.90;;;;;;7328274;32;20131;-61
2023/01/29 05:29:30;;;;;;;58.08;30.60;;;-2.90;99.90;;;;;;7328462;32;20131;-61
2023/01/29 05:33:31;;;;;;;62.38;30.55;;;-2.70;99.90;;;;;;7336498;32;20159;-60
2023/01/29 05:37:33;;;;;;;64.60;32.10;;;-2.60;99.90;;;;;;7347811;32;20597;-61
2023/01/29 05:41:35;;;;;;;60.05;31.05;;;-2.50;99.90;;;;;;7336979;32;20567;-60
2023/01/29 05:45:37;;;;;;;59.38;31.30;;;-2.40;99.90;;;;;;7347152;32;20115;-64
2023/01/29 05:49:39;;;;;;;61.78;31.15;;;-2.40;99.90;;;;;;7344519;32;20107;-60
2023/01/29 05:53:40;;;;;;;57.30;29.85;;;-2.30;99.90;;;;;;7334883;32;20119;-60
2023/01/29 05:57:42;;;;;;;59.60;30.55;;;-2.30;99.90;;;;;;7338251;32;20480;-61
2023/01/29 06:01:44;;;;;;;57.25;29.90;;;-2.20;99.90;;;;;;7340606;32;21350;-60
2023/01/29 06:05:46;;;;;;;64.30;29.85;;;-2.20;99.90;;;;;;7343992;32;20186;-60
2023/01/29 06:09:47;;;;;;;55.65;30.15;;;-2.20;99.90;;;;;;7333598;32;20136;-61
2023/01/29 06:13:49;;;;;;;59.13;30.27;;;-2.10;99.90;;;;;;7336510;32;20099;-60
2023/01/29 06:17:55;;;;;;;61.28;30.55;;;-2.10;99.90;;;;;;7334161;32;20126;-60
2023/01/29 06:21:57;;;;;;;61.87;30.83;;;-2.10;99.90;;;;;;7348252;32;20119;-59
2023/01/29 06:26:01;;;;;;;61.63;31.40;;;-2.10;99.90;;;;;;7342540;32;20107;-60
2023/01/29 06:30:04;;;;;;;61.20;30.15;;;-2.00;99.90;;;;;;7338355;32;20236;-59
2023/01/29 06:34:07;;;;;;;62.80;31.02;;;-2.00;99.90;;;;;;7344619;32;20559;-59
2023/01/29 06:38:08;;;;;;;54.80;29.60;;;-2.00;99.90;;;;;;7340168;32;20272;-59
2023/01/29 06:42:10;;;;;;;59.30;30.27;;;-1.90;99.90;;;;;;7344543;32;20103;-60
2023/01/29 06:46:12;;;;;;;57.22;30.27;;;-1.90;99.90;;;;;;7350366;32;20153;-60
2023/01/29 06:50:14;;;;;;;60.00;29.75;;;-1.80;99.90;;;;;;7339141;32;20253;-60
2023/01/29 06:54:16;;;;;;;56.85;30.05;;;-1.80;99.90;;;;;;7338891;32;20245;-62
2023/01/29 06:58:19;;;;;;;56.17;29.95;;;-1.70;99.90;;;;;;7341629;32;20107;-63
2023/01/29 07:02:21;;;;;;;59.33;29.33;;;-1.60;99.90;;;;;;7347142;32;20103;-61
2023/01/29 07:06:27;;;;;;;57.15;29.98;;;-1.60;99.90;;;;;;7344803;32;20106;-62
2023/01/29 07:10:29;;;;;;;55.70;29.87;;;-1.60;99.90;;;;;;7337354;32;20099;-62
2023/01/29 07:14:31;;;;;;;54.78;29.60;;;-1.60;99.90;;;;;;7343076;32;20196;-62
2023/01/29 07:18:33;;;;;;;54.78;29.50;;;-1.60;99.90;;;;;;7344781;32;20206;-61
2023/01/29 07:22:35;;;;;;;57.05;29.40;;;-1.60;99.90;;;;;;7347555;32;20230;-62
2023/01/29 07:26:37;;;;;;;55.05;29.75;;;-1.60;99.90;;;;;;7349382;32;20135;-61
2023/01/29 07:30:38;;;;;;;55.12;30.73;;;-1.50;99.90;;;;;;7345058;32;20170;-61
2023/01/29 07:34:40;;;;;;;60.80;30.52;;;-1.40;99.90;;;;;;7348493;32;20102;-63
2023/01/29 07:38:42;;;;;;;59.45;31.12;;;-1.40;99.90;;;;;;7345238;32;20162;-61
2023/01/29 07:42:44;;;;;;;54.33;29.17;;;-1.50;99.90;;;;;;7329820;32;20530;-62
2023/01/29 07:46:46;;;;;;;58.17;30.02;;;-1.50;99.90;;;;;;7334837;32;20332;-60
2023/01/29 07:50:55;;;;;;;56.05;29.70;;;-1.50;99.90;;;;;;7342337;32;20908;-62
2023/01/29 07:54:57;;;;;;;60.33;32.25;;;-1.40;99.90;;;;;;7346078;32;20161;-62
2023/01/29 07:58:59;;;;;;;57.42;29.67;;;-1.50;99.90;;;;;;7344863;32;20557;-60
2023/01/29 08:03:02;;;;;;;62.08;31.67;;;-1.50;99.90;;;;;;7338030;32;20126;-60
2023/01/29 08:07:04;;;;;;;61.60;30.73;;;-1.40;99.90;;;;;;7340962;32;20107;-60
2023/01/29 08:11:06;;;;;;;60.17;31.17;;;-1.40;99.90;;;;;;7343735;32;20211;-60
2023/01/29 08:15:08;;;;;;;60.90;30.42;;;-1.30;99.90;;;;;;7334990;32;20123;-60
2023/01/29 08:19:10;;;;;;;56.83;29.83;;;-1.40;99.90;;;;;;7340174;32;20121;-60
2023/01/29 08:23:14;;;;;;;59.05;29.87;;;-1.20;99.90;;;;;;7343499;32;20562;-60
2023/01/29 08:27:15;;;;;;;55.58;28.70;;;-1.20;99.90;;;;;;7344806;32;20278;-60
2023/01/29 08:31:19;;;;;;;61.03;30.52;;;-1.10;99.90;;;;;;7342499;32;20111;-62
2023/01/29 08:35:21;;;;;;;58.00;31.45;;;-1.10;99.90;;;;;;7343053;32;20769;-60
2023/01/29 08:39:23;;;;;;;51.90;28.05;;;-1.10;99.90;;;;;;7344269;32;20530;-61
2023/01/29 08:43:24;;;;;;;58.45;29.55;;;-1.00;99.90;;;;;;7344688;32;20104;-60
2023/01/29 08:47:26;;;;;;;56.85;29.48;;;-1.00;99.90;;;;;;7339992;32;20253;-60
2023/01/29 08:51:30;;;;;;;57.40;28.33;;;-1.00;99.90;;;;;;7341003;32;20195;-59
2023/01/29 08:55:31;;;;;;;56.58;30.12;;;-0.90;99.90;;;;;;7344518;32;20107;-59
2023/01/29 08:59:33;;;;;;;55.08;29.12;;;-0.90;99.90;;;;;;7339732;32;20149;-59
2023/01/29 09:03:35;;;;;;;53.42;28.83;;;-0.80;99.90;;;;;;7341047;32;20236;-60
2023/01/29 09:07:37;;;;;;;53.33;29.73;;;-0.70;99.90;;;;;;7337516;32;20099;-61
2023/01/29 09:11:39;;;;;;;52.22;27.55;;;-0.70;99.90;;;;;;7341367;32;20115;-61
2023/01/29 09:15:41;;;;;;;54.72;28.67;;;-0.60;99.90;;;;;;7345678;32;20119;-60
2023/01/29 09:19:42;;;;;;;56.35;28.67;;;-0.60;99.90;;;;;;7343678;32;20126;-61
2023/01/29 09:23:44;;;;;;;56.58;29.70;;;-0.60;99.90;;;;;;7349596;32;20599;-60
2023/01/29 09:27:46;;;;;;;56.95;29.67;;;-0.70;99.90;;;;;;7346110;32;20202;-61
2023/01/29 09:31:47;;;;;;;57.08;29.58;;;-0.50;99.90;;;;;;7338794;32;20346;-61
2023/01/29 09:35:49;;;;;;;53.72;27.87;;;-0.60;99.90;;;;;;7338300;32;20479;-60
2023/01/29 09:39:51;;;;;;;56.05;27.83;;;-0.50;99.90;;;;;;7343250;32;20095;-60
2023/01/29 09:44:00;;;;;;;54.67;28.52;;;-0.40;99.90;;;;;;7346375;32;20117;-60
2023/01/29 09:48:04;;;;;;;54.55;28.23;;;-0.20;99.90;;;;;;7349251;32;20157;-60
2023/01/29 09:52:24;;;;;;;55.35;28.75;;;-0.20;99.90;;;;;;7345598;32;20207;-60
2023/01/29 09:56:27;;;;;;;59.08;28.55;;;-0.10;99.90;;;;;;7342271;32;20135;-60
2023/01/29 10:00:50;;;;;;;55.00;28.40;;;-0.10;99.90;;;;;;7344377;32;20225;-60
2023/01/29 10:04:55;;;;;;;56.08;28.23;;;0.10;99.90;;;;;;7344236;32;20104;-60
2023/01/29 10:09:12;;;;;;;57.75;29.17;;;0.20;99.90;;;;;;7345823;32;20445;-60
2023/01/29 10:13:23;;;;;;;;;;;0.20;99.90;;;;;;7348661;32;20131;-60
2023/01/29 10:17:34;;;;;;;53.72;28.05;;;0.30;99.90;;;;;;7344862;32;20461;-60
2023/01/29 10:22:13;;;;;;;51.33;27.48;;;0.40;99.90;;;;;;7341640;32;20179;-60
2023/01/29 10:26:17;;;;;;;55.45;28.60;;;0.40;99.90;;;;;;7341334;32;20230;-60
2023/01/29 10:30:39;;;;;;;53.58;27.70;;;0.50;99.90;;;;;;7338367;32;20758;-59
2023/01/29 10:35:16;;;;;;;47.83;26.08;;;0.50;99.90;;;;;;7344887;32;20159;-60
2023/01/29 10:39:20;;;;;;;50.40;26.67;;;0.50;99.90;;;;;;7307711;32;20203;-60
2023/01/29 10:43:46;;;;;;;48.15;25.50;;;0.60;99.90;;;;;;7346843;32;20213;-59
2023/01/29 10:48:25;;;;;;;55.05;27.23;;;0.50;99.90;;;;;;7339792;32;20736;-61
2023/01/29 10:53:12;;;;;;;52.30;28.70;;;0.40;99.90;;;;;;7343075;32;20641;-60
2023/01/29 10:57:30;;;;;;;52.63;26.87;;;0.60;99.90;;;;;;7345654;32;20493;-60
2023/01/29 11:01:32;;;;;;;50.90;26.60;;;0.80;99.90;;;;;;7334106;32;20249;-60
2023/01/29 11:05:43;;;;;;;49.35;27.27;;;0.90;99.90;;;;;;7342620;32;20118;-60
2023/01/29 11:09:49;;;;;;;52.13;27.83;;;1.10;99.90;;;;;;7330081;32;20139;-60
2023/01/29 11:14:05;;;;;;;51.87;28.00;;;1.00;99.90;;;;;;7347919;32;20748;-60
2023/01/29 11:18:14;;;;;;;48.90;26.87;;;1.00;99.90;;;;;;7348855;32;20206;-60
2023/01/29 11:22:19;;;;;;;49.38;27.70;;;1.00;99.90;;;;;;7339506;32;20133;-60
2023/01/29 11:26:22;;;;;;;51.35;27.95;;;0.90;99.90;;;;;;7332169;32;20417;-60
2023/01/29 11:30:36;;;;;;;53.83;28.60;;;0.80;99.90;;;;;;7345584;32;20103;-61
2023/01/29 11:34:59;;;;;;;51.72;28.77;;;0.90;99.90;;;;;;7341833;32;20731;-61
2023/01/29 11:39:07;;;;;;;47.65;26.17;;;0.80;99.90;;;;;;7338782;32;20103;-60
2023/01/29 11:43:20;;;;;;;52.08;27.55;;;0.80;99.90;;;;;;7337183;32;20129;-61
2023/01/29 11:47:27;;;;;;;51.42;25.90;;;0.90;99.90;;;;;;7339029;32;20612;-60
2023/01/29 11:51:29;;;;;;;54.03;27.25;;;0.90;99.90;;;;;;7329571;32;20122;-63
2023/01/29 11:55:35;;;;;;;50.55;27.42;;;1.00;99.90;;;;;;7340975;32;20218;-61
2023/01/29 11:59:53;;;;;;;52.60;26.85;;;1.00;99.90;;;;;;7337561;32;20094;-61
2023/01/29 12:03:55;;;;;;;52.15;26.75;;;1.00;99.90;;;;;;7333999;32;20107;-60
2023/01/29 12:07:59;;;;;;;55.45;27.48;;;1.10;99.90;;;;;;7333974;32;20190;-62
2023/01/29 12:12:28;;;;;;;50.75;26.45;;;1.10;99.90;;;;;;7336538;32;20221;-62
2023/01/29 12:16:38;;;;;;;49.63;26.17;;;1.10;99.90;;;;;;7340142;32;20234;-60
2023/01/29 12:20:53;;;;;;;52.00;26.73;;;1.10;99.90;;;;;;7332476;32;20132;-61
2023/01/29 12:25:21;;;;;;;51.37;26.42;;;1.20;99.90;;;;;;7340714;32;20123;-60
2023/01/29 12:29:28;;;;;;;48.25;26.02;;;1.20;99.90;;;;;;7325886;32;20206;-61
2023/01/29 12:33:33;;;;;;;50.50;27.05;;;1.20;99.90;;;;;;7337160;32;20153;-60
2023/01/29 12:37:53;;;;;;;51.65;26.60;;;1.30;99.90;;;;;;7342813;32;20158;-63
2023/01/29 12:42:03;;;;;;;50.55;26.67;;;1.30;99.90;;;;;;7345328;32;20163;-61
2023/01/29 12:46:13;;;;;;;49.65;26.90;;;1.10;99.90;;;;;;7342808;32;20215;-61
2023/01/29 12:50:31;;;;;;;53.95;27.92;;;1.20;99.90;;;;;;7341134;32;20217;-60
2023/01/29 12:54:50;;;;;;;54.17;27.60;;;1.30;99.90;;;;;;7337844;32;20139;-61
2023/01/29 12:58:54;;;;;;;54.00;27.37;;;1.30;99.90;;;;;;7341417;32;20743;-62
2023/01/29 13:03:18;;;;;;;49.67;27.50;;;1.40;99.90;;;;;;7344114;32;20477;-61
2023/01/29 13:07:27;;;;;;;47.55;26.35;;;1.60;99.90;;;;;;7338637;32;20102;-61
2023/01/29 13:11:34;;;;;;;57.55;33.50;;;1.70;99.90;;;;;;7334775;32;20112;-62
2023/01/29 13:15:37;;;;;;;;;;;1.70;99.90;;;;;;7336185;32;20104;-59
2023/01/29 13:19:46;;;;;;;48.30;25.33;;;1.60;99.90;;;;;;7332789;32;20133;-60
2023/01/29 13:23:54;;;;;;;49.05;25.30;;;1.60;99.90;;;;;;7338389;32;20725;-61
2023/01/29 13:27:57;;;;;;;51.53;28.52;;;1.60;99.90;;;;;;7331364;32;20256;-59
2023/01/29 13:32:02;;;;;;;53.58;29.02;;;1.50;99.90;;;;;;7345151;32;20183;-59
2023/01/29 13:36:04;;;;;;;52.08;27.67;;;1.60;99.90;;;;;;7343472;32;20241;-59
2023/01/29 13:40:07;;;;;;;52.45;27.60;;;1.50;99.90;;;;;;7347715;32;20134;-60
2023/01/29 13:44:33;;;;;;;53.97;28.98;;;1.50;99.90;;;;;;7341037;32;20108;-59
2023/01/29 13:48:45;;;;;;;55.03;27.58;;;1.60;99.90;;;;;;7329319;32;20111;-59
2023/01/29 13:53:00;;;;;;;50.38;27.20;;;1.50;99.90;;;;;;7336337;32;20466;-60
2023/01/29 13:57:03;;;;;;;52.83;28.08;;;1.40;99.90;;;;;;7350493;32;20623;-60
2023/01/29 14:01:04;;;;;;;57.62;27.90;;;1.50;99.90;;;;;;7348089;32;20374;-61
2023/01/29 14:05:28;;;;;;;56.10;26.67;;;1.50;99.90;;;;;;7344075;32;20703;-61
2023/01/29 14:09:32;;;;;;;51.33;27.10;;;1.50;99.90;;;;;;7347437;32;20103;-61
2023/01/29 14:13:35;;;;;;;51.13;27.30;;;1.50;99.90;;;;;;7342430;32;20108;-60
2023/01/29 14:17:37;;;;;;;45.80;26.52;;;1.50;99.90;;;;;;7327806;32;20095;-60
2023/01/29 14:21:39;;;;;;;48.80;26.83;;;1.50;99.90;;;;;;7349120;32;20095;-61
2023/01/29 14:25:41;;;;;;;50.20;27.90;;;1.60;99.90;;;;;;7338887;32;20549;-60
2023/01/29 14:29:43;;;;;;;57.22;28.80;;;1.60;99.90;;;;;;7340751;32;20127;-60
2023/01/29 14:33:45;;;;;;;52.80;26.85;;;1.60;99.90;;;;;;7344086;32;20160;-60
2023/01/29 14:37:50;;;;;;;49.17;25.52;;;1.70;99.90;;;;;;7347715;32;20195;-59
2023/01/29 14:41:52;;;;;;;54.58;27.08;;;1.70;99.90;;;;;;7345528;32;20601;-60
2023/01/29 14:45:54;;;;;;;47.65;24.80;;;1.70;99.90;;;;;;7344826;32;20135;-60
2023/01/29 14:49:58;;;;;;;50.53;25.98;;;1.70;99.90;;;;;;7341236;32;20138;-62
2023/01/29 14:54:24;;;;;;;47.22;25.48;;;1.70;99.90;;;;;;7336849;32;20510;-59
2023/01/29 14:58:36;;;;;;;47.55;25.67;;;1.70;99.90;;;;;;7339506;32;20152;-60
2023/01/29 15:02:43;;;;;;;49.08;24.98;;;1.70;99.90;;;;;;7341158;32;20104;-60
2023/01/29 15:06:58;;;;;;;51.05;25.25;;;1.80;99.90;;;;;;7342728;32;20155;-60
2023/01/29 15:15:45;;;;;;;50.28;25.40;;;1.80;99.90;;;;;;7337391;32;20580;-60
2023/01/29 15:19:48;;;;;;;49.58;23.80;;;1.70;99.90;;;;;;7335635;32;20241;-61
2023/01/29 15:24:03;;;;;;;52.15;25.37;;;1.80;99.90;;;;;;7317052;32;20295;-61
2023/01/29 15:28:09;;;;;;;48.03;25.08;;;1.70;99.90;;;;;;7339868;32;20210;-60
2023/01/29 15:32:28;;;;;;;47.65;23.62;;;1.70;99.90;;;;;;7337609;32;20099;-60
2023/01/29 15:36:30;;;;;;;44.17;23.48;;;1.70;99.90;;;;;;7345421;32;20206;-60
2023/01/29 15:40:33;;;;;;;51.40;24.33;;;1.70;99.90;;;;;;7335198;32;20194;-60
2023/01/29 15:44:35;;;;;;;44.08;23.35;;;1.70;99.90;;;;;;7328081;32;20395;-61
2023/01/29 15:48:40;;;;;;;43.65;22.67;;;1.80;99.90;;;;;;7339743;32;20111;-64
2023/01/29 15:52:42;;;;;;;41.60;22.35;;;1.90;99.90;;;;;;7334464;32;20128;-61
2023/01/29 15:56:47;;;;;;;42.65;22.00;;;1.90;99.90;;;;;;7343245;32;20100;-61
2023/01/29 16:00:52;;;;;;;39.88;20.98;;;1.90;99.90;;;;;;7339861;32;20137;-62
2023/01/29 16:04:54;;;;;;;35.53;19.27;;;1.90;99.90;;;;;;7340151;32;20205;-62
2023/01/29 16:08:58;;;;;;;37.05;18.77;;;1.80;99.90;;;;;;7340363;32;20344;-61
2023/01/29 16:13:00;;;;;;;38.28;18.85;;;1.90;99.90;;;;;;7340526;32;20694;-62
2023/01/29 16:17:25;;;;;;;30.25;16.08;;;2.00;99.90;;;;;;7342031;32;20122;-60
2023/01/29 16:21:37;;;;;;;31.80;16.25;;;2.10;99.90;;;;;;7340456;32;20129;-61
2023/01/29 16:25:38;;;;;;;31.23;15.35;;;2.00;99.90;;;;;;7341324;32;20127;-61
2023/01/29 16:29:40;;;;;;;31.05;15.90;;;2.10;99.90;;;;;;7335369;32;20130;-61
2023/01/29 16:33:44;;;;;;;26.77;14.98;;;2.20;99.90;;;;;;7334718;32;20558;-62
2023/01/29 16:37:48;;;;;;;32.72;16.27;;;2.30;99.90;;;;;;7329584;32;20296;-59
2023/01/29 16:42:20;;;;;;;29.25;15.55;;;2.20;99.90;;;;;;7337757;32;20107;-60
2023/01/29 16:46:27;;;;;;;30.75;14.65;;;2.20;99.90;;;;;;7338369;32;20129;-58
2023/01/29 16:50:35;;;;;;;33.03;16.40;;;2.20;99.90;;;;;;7344933;32;20791;-59
2023/01/29 16:55:18;;;;;;;28.58;15.02;;;2.20;99.90;;;;;;7343310;32;20091;-59
2023/01/29 16:59:35;;;;;;;31.25;17.05;;;2.20;99.90;;;;;;7337887;32;20131;-60
2023/01/29 17:03:38;;;;;;;33.70;16.75;;;2.30;99.90;;;;;;7334875;32;20131;-60
2023/01/29 17:07:44;;;;;;;29.95;15.60;;;2.30;99.90;;;;;;7340354;32;20107;-61
2023/01/29 17:11:49;;;;;;;33.05;16.83;;;2.30;99.90;;;;;;7336139;32;20135;-59
2023/01/29 17:15:50;;;;;;;31.65;16.65;;;2.30;99.90;;;;;;7335826;32;20633;-59
2023/01/29 17:19:52;;;;;;;32.03;16.50;;;2.30;99.90;;;;;;7334490;32;20264;-60
2023/01/29 17:23:54;;;;;;;30.58;16.42;;;2.40;99.90;;;;;;7345264;32;20129;-59
2023/01/29 17:27:59;;;;;;;31.02;16.98;;;2.40;99.90;;;;;;7340132;32;20516;-59
2023/01/29 17:32:01;;;;;;;30.67;16.85;;;2.40;99.90;;;;;;7344430;32;20167;-59
2023/01/29 17:36:03;;;;;;;33.92;17.12;;;2.40;99.90;;;;;;7342096;32;20536;-59
2023/01/29 17:40:24;;;;;;;31.08;17.48;;;2.40;99.90;;;;;;7339680;32;20545;-61
2023/01/29 17:44:26;;;;;;;33.40;16.90;;;2.40;99.90;;;;;;7341919;32;20370;-60
2023/01/29 17:48:29;;;;;;;34.22;17.48;;;2.40;99.90;;;;;;7347204;32;20224;-61
2023/01/29 17:52:31;;;;;;;30.30;17.15;;;2.40;99.90;;;;;;7337922;32;20132;-60
2023/01/29 17:56:32;;;;;;;32.60;17.37;;;2.40;99.90;;;;;;7344974;32;20559;-61
2023/01/29 18:00:34;;;;;;;33.13;17.00;;;2.50;99.90;;;;;;7340925;32;20549;-59
2023/01/29 18:04:36;;;;;;;30.90;16.17;;;2.40;99.90;;;;;;7339007;32;20783;-60
2023/01/29 18:08:39;;;;;;;33.05;16.70;;;2.40;99.90;;;;;;7342797;32;20126;-59
2023/01/29 18:12:40;;;;;;;32.92;17.87;;;2.40;99.90;;;;;;7344425;32;20112;-59
2023/01/29 18:16:43;;;;;;;32.20;18.08;;;2.40;99.90;;;;;;7346088;32;20182;-59
2023/01/29 18:20:45;;;;;;;32.92;18.83;;;2.40;99.90;;;;;;7340305;32;20145;-59
2023/01/29 18:24:47;;;;;;;32.08;18.30;;;2.40;99.90;;;;;;7341501;32;20135;-61
2023/01/29 18:28:49;;;;;;;31.08;16.95;;;2.40;99.90;;;;;;7335792;32;20157;-58
2023/01/29 18:32:52;;;;;;;31.17;17.87;;;2.40;99.90;;;;;;7335934;32;20558;-59
2023/01/29 18:36:53;;;;;;;34.38;19.02;;;2.40;99.90;;;;;;7339445;32;20103;-60
2023/01/29 18:41:03;;;;;;;30.08;16.80;;;2.40;99.90;;;;;;7329938;32;20242;-60
2023/01/29 18:45:06;;;;;;;35.42;19.80;;;2.50;99.90;;;;;;7345957;32;20123;-60
2023/01/29 18:49:08;;;;;;;30.70;17.87;;;2.40;99.90;;;;;;7339866;32;20199;-60
2023/01/29 18:53:09;;;;;;;31.60;17.90;;;2.40;99.90;;;;;;7338298;32;20122;-61
2023/01/29 18:57:11;;;;;;;29.23;17.17;;;2.40;99.90;;;;;;7340284;32;20134;-60
2023/01/29 19:01:16;;;;;;;32.65;17.55;;;2.40;99.90;;;;;;7339557;32;20088;-60
2023/01/29 19:05:21;;;;;;;36.30;17.83;;;2.40;99.90;;;;;;7330876;32;20104;-62
2023/01/29 19:09:23;;;;;;;34.65;17.83;;;2.40;99.90;;;;;;7333282;32;20820;-60
2023/01/29 19:13:25;;;;;;;37.25;18.52;;;2.40;99.90;;;;;;7338216;32;20166;-60
2023/01/29 19:17:27;;;;;;;33.72;17.55;;;2.30;99.90;;;;;;7338860;32;20095;-62
2023/01/29 19:21:34;;;;;;;37.17;19.67;;;2.40;99.90;;;;;;7338364;32;20172;-62
2023/01/29 19:25:37;;;;;;;;;;;2.40;99.90;;;;;;7343029;32;20122;-61
2023/01/29 19:29:39;;;;;;;34.55;17.20;;;2.30;99.90;;;;;;7338716;32;20116;-61
2023/01/29 19:33:41;;;;;;;35.38;18.08;;;2.40;99.90;;;;;;7337077;32;20175;-61
2023/01/29 19:37:43;;;;;;;31.77;17.85;;;2.40;99.90;;;;;;7339565;32;20261;-60
2023/01/29 19:41:45;;;;;;;34.17;18.10;;;2.30;99.90;;;;;;7335426;32;20183;-60
2023/01/29 19:45:47;;;;;;;34.38;17.40;;;2.30;99.90;;;;;;7340834;32;20100;-60
2023/01/29 19:49:51;;;;;;;31.25;17.50;;;2.30;99.90;;;;;;7337094;32;21510;-60
2023/01/29 19:53:53;;;;;;;28.38;16.50;;;2.40;99.90;;;;;;7339648;32;20146;-61
2023/01/29 19:57:56;;;;;;;31.35;17.85;;;2.30;99.90;;;;;;7344345;32;20194;-60
2023/01/29 20:01:58;;;;;;;36.30;17.95;;;2.30;99.90;;;;;;7328638;32;20269;-61
2023/01/29 20:06:02;;;;;;;30.52;16.55;;;2.40;99.90;;;;;;7337500;32;20111;-63
2023/01/29 20:10:06;;;;;;;31.08;17.37;;;2.40;99.90;;;;;;7346654;32;20706;-60
2023/01/29 20:14:09;;;;;;;34.65;19.33;;;2.40;99.90;;;;;;7337480;32;20500;-62
2023/01/29 20:18:12;;;;;;;32.08;15.95;;;2.50;99.90;;;;;;7338561;32;20133;-60
2023/01/29 20:22:13;;;;;;;34.50;19.17;;;2.50;99.90;;;;;;7342548;32;20130;-60
2023/01/29 20:26:17;;;;;;;36.85;18.55;;;2.40;99.90;;;;;;7330582;32;20112;-60
2023/01/29 20:30:18;;;;;;;33.40;17.67;;;2.40;99.90;;;;;;7333316;32;20312;-61
2023/01/29 20:34:21;;;;;;;33.47;18.02;;;2.40;99.90;;;;;;7330749;32;20542;-60
2023/01/29 20:38:24;;;;;;;36.28;19.25;;;2.40;99.90;;;;;;7330839;32;20103;-60
2023/01/29 20:42:26;;;;;;;34.63;18.48;;;2.40;99.90;;;;;;7335627;32;20218;-61
2023/01/29 20:46:28;;;;;;;31.25;18.75;;;2.40;99.90;;;;;;7339727;32;20126;-61
2023/01/29 20:50:30;;;;;;;34.17;18.83;;;2.50;99.90;;;;;;7334118;32;20214;-61
2023/01/29 20:54:33;;;;;;;32.63;18.58;;;2.40;99.90;;;;;;7339232;32;20171;-61
2023/01/29 20:58:35;;;;;;;33.08;19.37;;;2.40;99.90;;;;;;7337202;32;20395;-61
2023/01/29 21:02:37;;;;;;;35.42;18.33;;;2.50;99.90;;;;;;7340797;32;20177;-61
2023/01/29 21:06:38;;;;;;;33.30;17.25;;;2.50;99.90;;;;;;7337008;32;20204;-60
2023/01/29 21:10:40;;;;;;;34.47;18.25;;;2.60;99.90;;;;;;7346799;32;20114;-61
2023/01/29 21:14:44;;;;;;;34.35;17.27;;;2.60;99.90;;;;;;7345987;32;20557;-60
2023/01/29 21:18:47;;;;;;;32.28;17.20;;;2.70;99.90;;;;;;7318945;32;20184;-60
2023/01/29 21:22:48;;;;;;;34.05;18.52;;;2.70;99.90;;;;;;7341478;32;20212;-61
2023/01/29 21:26:50;;;;;;;31.02;17.98;;;2.80;99.90;;;;;;7335942;32;20955;-60
2023/01/29 21:31:02;;;;;;;33.63;17.23;;;2.80;99.90;;;;;;7335084;32;20107;-59